首页
METAR-TAF:

METAR-TAF

机场 :

Northolt, 英格兰

纬度: 51-33N, 经度: 000-25W, 海拔: 38米

当前天气观测

该预报发布于29分钟前的15:20 UTC
风速17节,风向西转西南
温度 8°C
湿度 71%
气压 998 hPa
能见度10公里或以上
少量云层高于2200英尺
多云层高于3500英尺, 塔状积云.

METAR: EGWU 081520Z 25017KT 9999 FEW022 BKN035TCU 08/03 Q0998 NOSIG RMK BLU BLU

时间: 15:49 (15:49 UTC)

预报

该预报发布于2小时和23分钟前的13:26 UTC
预报有效从08日的 15点(UTC)到 09日的 09点(UTC)
风速15节,风向西,有时为25节阵风
能见度10公里或以上
散云层高于3000英尺
短暂存在
从 08日的 15点(UTC)到 09日的 09点(UTC)
散云层高于2200英尺
小阵雨
几率 40% :
短暂存在
从 08日的 15点(UTC)到 08日的 20点(UTC)
风速20节,风向西,有时为35节阵风
能見度: 6000
多云层高于1500英尺, 积雨云.
阵雨
几率 30% :
短暂存在
从 08日的 22点(UTC)到 09日的 03点(UTC)
风速20节,风向西转西南,有时为35节阵风
能見度: 7000
多云层高于1200英尺
阵雨

TAF: EGWU 081326Z 0815/0909 26015G25KT 9999 SCT030 TEMPO 0815/0909 -SHRA SCT022 PROB40 TEMPO 0815/0820 27020G35KT 6000 SHRA BKN015CB PROB30 TEMPO 0822/0903 24020G35KT 7000 SHRA BKN012

超过4000个机场的气象观测和天气预报(METAR&TAF报告)。

可查询的气象台以黄色和红色小点在地图上表示。

将鼠标移到小点上方,可查看气象台名称。

然后点击查看天气观测和预报。

如需切换地图:点击带黑十字的绿色按钮放大地图;点击带横线的绿色按钮缩小地图;或者点击绿色箭头查看邻近地区的地图。


METAR-TAF: